Time;durP1;ratioP1;P1;durP2;ratioP2;P2;SDS_P1;SDS_P2;PMS_P1;PMS_P2;Temp;Humidity;BMP_temperature;BMP_pressure;BME280_temperature;BME280_humidity;BME280_pressure;Samples;Min_cycle;Max_cycle;Signal;HPM_P1;HPM_P2
2023/06/23 00:02:00;;;;;;;1.70;1.55;;;;;;;17.78;86.99;101101.16;5149735;28;20054;-82
2023/06/23 00:04:51;;;;;;;1.67;1.40;;;;;;;17.90;86.09;101115.59;5136751;28;20043;-81
2023/06/23 00:07:42;;;;;;;2.10;1.77;;;;;;;17.75;87.67;101117.28;5162453;28;20076;-81
2023/06/23 00:10:33;;;;;;;0.73;0.73;;;;;;;17.92;85.30;101115.53;5164851;28;20035;-81
2023/06/23 00:13:24;;;;;;;1.00;1.00;;;;;;;18.13;83.73;101110.06;5164538;28;20040;-82
2023/06/23 00:16:15;;;;;;;1.55;1.25;;;;;;;17.75;86.04;101122.56;5140949;28;20069;-81
2023/06/23 00:19:06;;;;;;;0.75;0.73;;;;;;;17.72;86.08;101121.88;5140437;28;20062;-81
2023/06/23 00:21:58;;;;;;;0.50;0.50;;;;;;;17.55;87.67;101115.63;5143073;28;20050;-81
2023/06/23 00:24:52;;;;;;;0.75;0.75;;;;;;;17.88;85.41;101122.81;5155006;28;20049;-80
2023/06/23 00:27:45;;;;;;;1.17;1.08;;;;;;;17.94;84.53;101133.09;5143719;28;20484;-81
2023/06/23 00:30:36;;;;;;;0.90;0.80;;;;;;;17.87;84.70;101134.34;5155483;28;20034;-81
2023/06/23 00:33:27;;;;;;;0.65;0.63;;;;;;;17.66;86.16;101138.09;5147487;28;20130;-82
2023/06/23 00:36:18;;;;;;;0.70;0.60;;;;;;;17.84;84.78;101138.97;5142993;28;20034;-81
2023/06/23 00:39:09;;;;;;;0.75;0.75;;;;;;;17.73;85.46;101144.78;5153813;28;20053;-81
2023/06/23 00:42:06;;;;;;;0.98;0.98;;;;;;;17.77;84.19;101147.22;5156865;28;20049;-82
2023/06/23 00:44:57;;;;;;;0.90;0.90;;;;;;;17.73;84.14;101160.72;5139681;28;20521;-81
2023/06/23 00:47:49;;;;;;;0.80;0.80;;;;;;;17.74;83.78;101163.31;5153007;28;20038;-81
2023/06/23 00:50:41;;;;;;;0.60;0.60;;;;;;;17.47;86.34;101176.16;5150836;28;20694;-81
2023/06/23 00:53:32;;;;;;;0.50;0.50;;;;;;;17.55;84.76;101166.03;5154711;28;20034;-81
2023/06/23 00:56:24;;;;;;;1.23;1.15;;;;;;;17.39;85.95;101159.75;5142361;28;20078;-80
2023/06/23 00:59:15;;;;;;;0.90;0.88;;;;;;;17.37;85.51;101167.78;5145898;28;20027;-81
2023/06/23 01:02:06;;;;;;;0.70;0.70;;;;;;;17.21;86.36;101175.63;5139626;28;20057;-79
2023/06/23 01:04:57;;;;;;;1.50;1.40;;;;;;;17.41;85.65;101176.44;5143498;28;20038;-81
2023/06/23 01:07:58;;;;;;;1.17;1.17;;;;;;;17.07;86.48;101184.22;5145376;28;20034;-80
2023/06/23 01:11:02;;;;;;;1.25;1.15;;;;;;;17.36;85.18;101189.06;5146804;28;20529;-80
2023/06/23 01:14:07;;;;;;;0.50;0.50;;;;;;;17.48;83.87;101193.78;5158065;28;20074;-80
2023/06/23 01:17:05;;;;;;;0.98;0.95;;;;;;;17.23;84.92;101202.91;5163037;28;20038;-80
2023/06/23 01:20:20;;;;;;;0.93;0.93;;;;;;;17.49;83.81;101192.84;5156238;28;20037;-80
2023/06/23 01:23:20;;;;;;;0.85;0.63;;;;;;;17.42;83.20;101205.56;5149418;28;20457;-81
2023/06/23 01:26:52;;;;;;;1.95;0.57;;;;;;;17.37;83.73;101214.66;5146193;28;20039;-80
2023/06/23 01:29:47;;;;;;;0.30;0.30;;;;;;;17.20;84.21;101218.09;5149595;28;20026;-80
2023/06/23 01:32:47;;;;;;;0.20;0.20;;;;;;;17.36;83.71;101213.78;5123054;28;20039;-79
2023/06/23 01:35:44;;;;;;;0.75;0.75;;;;;;;17.29;83.57;101223.84;5121436;28;20038;-81
2023/06/23 01:38:47;;;;;;;0.85;0.85;;;;;;;17.26;83.86;101226.63;5139595;28;20030;-81
2023/06/23 01:41:44;;;;;;;0.57;0.57;;;;;;;17.05;85.37;101236.44;5155773;28;20042;-81
2023/06/23 01:44:37;;;;;;;2.22;1.73;;;;;;;17.30;83.58;101230.88;5146098;28;20106;-81
2023/06/23 01:47:32;;;;;;;;;;;;;;;17.31;83.24;101234.38;5161677;28;20042;-81
2023/06/23 01:50:22;;;;;;;;;;;;;;;17.11;85.28;101232.66;5143321;28;19946;-80
2023/06/23 01:53:14;;;;;;;1.15;1.05;;;;;;;17.42;82.24;101244.47;5157501;28;20359;-80
2023/06/23 01:56:08;;;;;;;2.83;0.85;;;;;;;17.37;83.40;101246.50;5144639;28;20101;-80
2023/06/23 01:59:00;;;;;;;1.40;1.33;;;;;;;17.23;83.76;101255.94;5158564;28;20037;-80
2023/06/23 02:01:53;;;;;;;0.55;0.55;;;;;;;17.20;84.04;101256.09;5131673;28;20047;-80
2023/06/23 02:04:48;;;;;;;3.13;1.58;;;;;;;17.13;84.33;101262.63;5136440;28;20457;-81
2023/06/23 02:07:42;;;;;;;0.93;0.93;;;;;;;17.42;82.22;101263.03;5143177;28;20035;-81
2023/06/23 02:10:35;;;;;;;1.25;1.15;;;;;;;17.04;85.33;101271.84;5153202;28;20054;-81
2023/06/23 02:13:28;;;;;;;0.50;0.50;;;;;;;17.20;83.52;101272.00;5164390;28;20034;-81
2023/06/23 02:16:20;;;;;;;0.77;0.70;;;;;;;17.32;82.84;101278.53;5134951;28;20057;-81
2023/06/23 02:19:11;;;;;;;0.50;0.50;;;;;;;17.41;81.51;101279.88;5142141;28;20102;-81
2023/06/23 02:22:03;;;;;;;1.58;1.08;;;;;;;17.20;83.72;101282.63;5137873;28;20572;-80
2023/06/23 02:24:55;;;;;;;0.82;0.70;;;;;;;17.12;84.12;101293.56;5144947;28;20042;-80
2023/06/23 02:27:47;;;;;;;0.70;0.70;;;;;;;17.12;83.75;101298.88;5164378;28;20079;-80
2023/06/23 02:30:40;;;;;;;1.15;1.05;;;;;;;17.20;84.00;101298.53;5142916;28;20034;-80
2023/06/23 02:33:31;;;;;;;0.63;0.63;;;;;;;17.30;83.11;101301.59;5155283;28;20213;-80
2023/06/23 02:36:29;;;;;;;0.45;0.45;;;;;;;17.35;82.85;101298.75;5122348;28;20062;-80
2023/06/23 02:39:23;;;;;;;1.58;0.93;;;;;;;17.43;81.39;101315.16;5145157;28;20030;-81
2023/06/23 02:42:18;;;;;;;1.85;1.58;;;;;;;17.06;84.24;101319.50;5136147;28;20636;-80
2023/06/23 02:45:28;;;;;;;1.33;1.23;;;;;;;17.14;84.13;101317.38;5155099;28;20459;-80
2023/06/23 02:48:24;;;;;;;1.02;0.98;;;;;;;17.08;84.86;101325.59;5155397;28;20054;-80
2023/06/23 02:51:18;;;;;;;1.95;1.58;;;;;;;17.33;83.09;101319.16;5142982;28;20052;-81
2023/06/23 02:54:13;;;;;;;1.65;0.75;;;;;;;17.28;83.55;101325.56;5150359;28;20031;-81
2023/06/23 02:57:07;;;;;;;0.43;0.43;;;;;;;17.34;83.25;101327.06;5151666;28;20046;-81
2023/06/23 02:59:59;;;;;;;;;;;;;;;17.36;83.17;101322.53;5127851;28;20042;-81
2023/06/23 03:02:59;;;;;;;0.40;0.40;;;;;;;17.13;85.29;101336.88;5130781;28;19956;-81
2023/06/23 03:05:49;;;;;;;1.10;1.00;;;;;;;16.87;86.98;101325.59;5160325;28;20778;-80
2023/06/23 03:08:40;;;;;;;1.83;1.45;;;;;;;16.90;87.01;101336.03;5156566;28;20030;-80
2023/06/23 03:11:33;;;;;;;1.50;1.27;;;;;;;17.06;85.99;101341.56;5153688;28;20490;-81
2023/06/23 03:14:24;;;;;;;1.63;1.50;;;;;;;17.02;86.24;101344.41;5148977;28;20037;-81
2023/06/23 03:17:21;;;;;;;1.20;1.10;;;;;;;17.10;85.43;101344.94;5124015;28;20037;-80
2023/06/23 03:20:26;;;;;;;0.82;0.82;;;;;;;17.18;84.21;101353.41;5144241;28;20482;-80
2023/06/23 03:23:18;;;;;;;1.45;0.93;;;;;;;17.15;84.18;101357.06;5143319;28;20045;-81
2023/06/23 03:26:11;;;;;;;1.05;1.02;;;;;;;16.89;86.99;101350.25;5142320;28;20039;-81
2023/06/23 03:29:07;;;;;;;9.83;2.70;;;;;;;17.30;82.91;101362.59;5147266;28;20027;-81
2023/06/23 03:32:02;;;;;;;2.08;1.08;;;;;;;17.26;84.96;101364.53;5153145;28;20265;-80
2023/06/23 03:35:04;;;;;;;0.88;0.88;;;;;;;17.14;85.20;101367.75;5158160;28;20055;-81
2023/06/23 03:38:01;;;;;;;0.98;0.98;;;;;;;17.18;85.04;101369.31;5147058;28;20053;-82
2023/06/23 03:40:59;;;;;;;1.48;1.38;;;;;;;16.97;86.70;101374.66;5157419;28;20105;-81
2023/06/23 03:43:54;;;;;;;2.10;1.70;;;;;;;17.15;84.98;101372.09;5151285;28;20038;-81
2023/06/23 03:46:51;;;;;;;10.80;0.93;;;;;;;17.18;85.00;101385.22;5138711;28;20039;-80
2023/06/23 03:49:46;;;;;;;2.70;1.63;;;;;;;17.21;84.36;101393.06;5151322;28;20030;-80
2023/06/23 03:52:39;;;;;;;1.90;1.80;;;;;;;17.09;85.13;101394.47;5161135;28;20081;-80
2023/06/23 03:55:32;;;;;;;1.42;1.33;;;;;;;17.24;84.50;101387.59;5131340;28;20035;-80
2023/06/23 03:58:24;;;;;;;2.22;1.63;;;;;;;17.32;83.18;101384.63;5146983;28;20454;-80
2023/06/23 04:01:16;;;;;;;1.35;1.02;;;;;;;16.99;86.50;101393.13;5154463;28;20066;-82
2023/06/23 04:04:08;;;;;;;4.57;2.55;;;;;;;17.12;85.86;101393.47;5141377;28;20056;-82
2023/06/23 04:07:01;;;;;;;1.80;1.70;;;;;;;17.19;85.08;101404.69;5143930;28;20069;-80
2023/06/23 04:09:54;;;;;;;2.63;2.42;;;;;;;16.91;86.99;101397.88;5152491;28;20026;-81
2023/06/23 04:12:46;;;;;;;1.80;1.60;;;;;;;16.88;86.96;101396.22;5155188;28;20069;-79
2023/06/23 04:15:38;;;;;;;0.98;0.98;;;;;;;16.94;86.68;101403.09;5139340;28;20055;-80
2023/06/23 04:18:32;;;;;;;1.25;1.15;;;;;;;16.73;88.13;101403.03;5142289;28;20065;-81
2023/06/23 04:21:24;;;;;;;2.67;1.90;;;;;;;16.73;87.91;101408.31;5166786;28;20438;-84
2023/06/23 04:24:17;;;;;;;5.53;1.70;;;;;;;16.86;86.81;101421.06;5162610;28;20045;-85
2023/06/23 04:27:11;;;;;;;1.90;1.73;;;;;;;16.84;87.10;101424.66;5142098;28;20093;-85
2023/06/23 04:30:05;;;;;;;1.92;1.83;;;;;;;16.95;85.37;101439.25;5150636;28;20026;-83
2023/06/23 04:32:56;;;;;;;1.02;1.02;;;;;;;16.71;88.16;101441.97;5140841;28;20026;-84
2023/06/23 04:35:49;;;;;;;0.85;0.85;;;;;;;16.80;87.44;101446.88;5152007;28;20043;-81
2023/06/23 04:38:46;;;;;;;2.33;2.13;;;;;;;16.88;86.61;101449.22;5154432;28;20541;-83
2023/06/23 04:41:40;;;;;;;1.75;1.65;;;;;;;16.92;85.54;101453.47;5145855;28;20046;-80
2023/06/23 04:44:42;;;;;;;1.52;1.42;;;;;;;16.75;87.29;101454.19;5142334;28;20049;-80
2023/06/23 04:47:35;;;;;;;2.08;1.92;;;;;;;16.56;89.29;101456.72;5142176;28;20124;-79
2023/06/23 04:50:32;;;;;;;2.53;2.33;;;;;;;16.53;89.35;101455.03;5135166;28;20048;-80
2023/06/23 04:53:30;;;;;;;1.33;1.23;;;;;;;16.77;86.82;101467.34;5141957;28;20091;-79
2023/06/23 04:56:25;;;;;;;0.90;0.90;;;;;;;16.73;87.63;101471.94;5153789;28;20105;-80
2023/06/23 04:59:21;;;;;;;2.45;2.25;;;;;;;16.59;88.31;101469.84;5147801;28;20038;-80
2023/06/23 05:02:13;;;;;;;1.10;1.10;;;;;;;16.64;88.11;101473.19;5155127;28;20039;-80
2023/06/23 05:05:06;;;;;;;1.88;1.67;;;;;;;16.67;87.99;101474.84;5130120;28;20031;-79
2023/06/23 05:08:01;;;;;;;1.88;1.77;;;;;;;16.91;86.25;101480.03;5135181;28;20037;-80
2023/06/23 05:10:53;;;;;;;1.25;1.17;;;;;;;16.89;86.25;101485.41;5154759;28;20042;-79
2023/06/23 05:13:45;;;;;;;5.53;2.90;;;;;;;16.73;87.50;101494.94;5156446;28;20026;-78
2023/06/23 05:16:37;;;;;;;1.60;1.50;;;;;;;16.86;85.65;101490.84;5136971;28;20072;-79
2023/06/23 05:19:31;;;;;;;2.80;2.60;;;;;;;16.95;85.63;101502.88;5127384;28;20041;-79
2023/06/23 05:22:25;;;;;;;1.40;1.30;;;;;;;16.73;87.92;101509.03;5148582;28;20055;-79
2023/06/23 05:25:19;;;;;;;3.72;2.13;;;;;;;16.75;87.64;101520.44;5125893;28;20030;-80
2023/06/23 05:28:12;;;;;;;1.58;1.48;;;;;;;17.10;84.18;101519.94;5138661;28;20612;-79
2023/06/23 05:31:05;;;;;;;;;;;;;;;17.05;85.69;101513.97;5143814;28;20653;-80
2023/06/23 05:33:58;;;;;;;1.75;1.30;;;;;;;16.98;86.03;101519.50;5141981;28;19917;-79
2023/06/23 05:42:05;;;;;;;2.20;2.00;;;;;;;16.95;87.29;101513.47;5199257;28;20508;-84
2023/06/23 05:44:55;;;;;;;1.48;1.27;;;;;;;17.01;86.99;101507.06;5199643;28;20683;-85
2023/06/23 05:47:57;;;;;;;1.80;1.60;;;;;;;16.96;87.97;101518.72;5220620;28;20108;-85
2023/06/23 05:50:50;;;;;;;2.50;2.30;;;;;;;17.21;85.20;101530.97;5217595;28;20095;-84
2023/06/23 05:53:43;;;;;;;2.33;1.95;;;;;;;17.02;87.62;101527.34;5207893;28;20029;-85
2023/06/23 05:56:44;;;;;;;2.25;2.05;;;;;;;17.17;87.00;101525.84;5219333;28;20029;-84
2023/06/23 05:59:39;;;;;;;4.30;2.83;;;;;;;17.36;85.58;101526.78;5205602;28;20152;-84
2023/06/23 06:02:33;;;;;;;2.72;2.50;;;;;;;17.19;88.30;101530.16;5217309;28;20408;-84
2023/06/23 06:05:32;;;;;;;2.58;1.83;;;;;;;17.30;86.54;101530.56;5199845;28;20393;-85
2023/06/23 06:08:27;;;;;;;2.15;1.60;;;;;;;17.20;87.11;101542.50;5201812;28;20501;-85
2023/06/23 06:11:21;;;;;;;1.30;1.27;;;;;;;17.42;86.66;101549.53;5206802;28;20032;-85
2023/06/23 06:14:12;;;;;;;2.08;1.90;;;;;;;17.18;86.74;101554.94;5220267;28;20033;-85
2023/06/23 06:17:08;;;;;;;1.40;1.30;;;;;;;17.12;87.99;101563.16;5221745;28;20047;-85
2023/06/23 06:20:05;;;;;;;4.05;3.15;;;;;;;17.20;88.05;101566.34;5207991;28;20124;-85
2023/06/23 06:22:56;;;;;;;5.63;4.10;;;;;;;17.48;86.42;101565.16;5219993;28;20107;-85
2023/06/23 06:28:29;;;;;;;2.00;1.83;;;;;;;17.53;85.76;101572.94;5219989;23;20057;-94
2023/06/23 06:31:24;;;;;;;2.53;2.28;;;;;;;17.65;84.87;101582.16;5173137;28;20026;-93
2023/06/23 06:34:19;;;;;;;1.65;1.55;;;;;;;17.74;84.64;101587.06;5183504;28;20018;-95
2023/06/23 06:37:11;;;;;;;2.08;1.90;;;;;;;17.85;84.50;101574.22;5191198;28;20049;-94
2023/06/23 06:40:07;;;;;;;8.40;1.90;;;;;;;17.70;84.98;101590.81;5171434;28;20346;-92
2023/06/23 06:42:59;;;;;;;2.05;1.95;;;;;;;17.84;83.37;101588.41;5169707;28;20053;-90
2023/06/23 06:45:50;;;;;;;2.00;1.60;;;;;;;17.84;83.64;101593.72;5179086;28;20624;-93
2023/06/23 06:48:45;;;;;;;3.38;2.95;;;;;;;17.96;83.48;101594.16;5180419;28;20522;-92
2023/06/23 06:51:40;;;;;;;6.75;2.78;;;;;;;17.85;84.96;101603.41;5186176;28;20141;-91
2023/06/23 06:54:32;;;;;;;2.88;2.67;;;;;;;17.90;84.58;101595.25;5195064;28;20033;-92
2023/06/23 06:57:23;;;;;;;3.78;1.33;;;;;;;17.90;84.51;101606.72;5174053;28;20116;-91
2023/06/23 07:00:19;;;;;;;1.73;1.63;;;;;;;17.94;84.24;101608.31;5185580;28;20061;-92
2023/06/23 07:03:15;;;;;;;2.40;1.98;;;;;;;18.07;84.20;101608.66;5171169;28;20038;-93
2023/06/23 07:06:06;;;;;;;6.50;3.67;;;;;;;18.16;83.84;101609.19;5173370;28;20105;-93
2023/06/23 07:08:57;;;;;;;2.13;1.92;;;;;;;18.13;84.05;101609.31;5191661;28;20036;-93
2023/06/23 07:11:51;;;;;;;1.90;1.77;;;;;;;18.12;83.73;101605.81;5174248;28;20045;-93
2023/06/23 07:14:42;;;;;;;3.78;2.75;;;;;;;18.28;83.30;101610.44;5183347;28;20112;-92
2023/06/23 07:17:33;;;;;;;2.30;1.90;;;;;;;18.42;82.00;101609.81;5174416;28;20042;-92
2023/06/23 07:20:24;;;;;;;2.67;2.25;;;;;;;18.42;81.67;101615.13;5188311;28;20068;-92
2023/06/23 07:23:14;;;;;;;1.25;1.20;;;;;;;18.37;82.70;101629.44;5169560;28;20037;-92
2023/06/23 07:26:05;;;;;;;1.40;1.27;;;;;;;18.43;82.44;101628.31;5174697;28;20120;-93
2023/06/23 07:28:56;;;;;;;1.48;1.38;;;;;;;18.55;81.62;101635.72;5191589;28;20060;-93
2023/06/23 07:31:47;;;;;;;1.70;1.55;;;;;;;18.54;81.39;101630.47;5177070;28;20053;-93
2023/06/23 07:34:37;;;;;;;1.80;1.63;;;;;;;18.57;81.47;101630.34;5181614;28;20033;-92
2023/06/23 07:37:28;;;;;;;1.85;1.75;;;;;;;18.53;81.89;101650.00;5178375;28;20034;-94
2023/06/23 07:40:19;;;;;;;3.35;1.90;;;;;;;18.58;81.28;101648.03;5199777;28;20041;-91
2023/06/23 07:43:10;;;;;;;1.90;1.80;;;;;;;18.60;82.33;101650.59;5202095;28;20018;-92
2023/06/23 07:46:01;;;;;;;2.75;2.55;;;;;;;18.69;80.95;101650.19;5201841;28;20171;-92
2023/06/23 07:48:52;;;;;;;1.08;1.08;;;;;;;18.70;81.14;101647.44;5204840;28;20026;-90
2023/06/23 07:51:43;;;;;;;1.25;1.15;;;;;;;18.74;80.98;101648.16;5190711;28;20122;-92
2023/06/23 07:54:34;;;;;;;1.13;1.10;;;;;;;18.81;80.25;101643.41;5180580;28;20071;-92
2023/06/23 07:57:25;;;;;;;1.02;0.98;;;;;;;18.87;79.48;101654.63;5189009;28;20105;-93
2023/06/23 08:00:16;;;;;;;3.05;1.92;;;;;;;18.85;80.40;101639.66;5177824;28;20109;-93
2023/06/23 08:03:07;;;;;;;2.08;1.30;;;;;;;18.96;79.92;101642.72;5199231;28;20075;-93
2023/06/23 08:05:58;;;;;;;3.83;2.50;;;;;;;19.01;79.97;101650.47;5190986;28;20033;-92
2023/06/23 08:08:52;;;;;;;1.25;1.23;;;;;;;19.15;78.69;101647.16;5204352;28;20074;-93
2023/06/23 08:11:44;;;;;;;2.53;1.70;;;;;;;19.12;78.95;101661.47;5193401;28;20120;-93
2023/06/23 08:14:34;;;;;;;1.75;1.13;;;;;;;19.16;79.40;101659.53;5183860;28;20639;-93
2023/06/23 08:17:25;;;;;;;1.15;1.05;;;;;;;19.17;77.65;101667.41;5190379;28;20098;-94
2023/06/23 08:20:16;;;;;;;3.60;1.75;;;;;;;19.19;77.56;101664.69;5177911;28;20137;-92
2023/06/23 08:23:07;;;;;;;1.52;1.42;;;;;;;19.40;77.56;101673.41;5188035;28;20021;-92
2023/06/23 08:25:57;;;;;;;1.83;1.73;;;;;;;19.44;77.85;101674.13;5175088;28;20145;-91
2023/06/23 08:28:48;;;;;;;1.08;1.08;;;;;;;19.46;78.32;101665.13;5187545;28;20029;-93
2023/06/23 08:31:39;;;;;;;1.60;1.38;;;;;;;19.58;77.39;101668.13;5198229;28;20030;-93
2023/06/23 08:34:30;;;;;;;2.28;2.08;;;;;;;19.54;75.80;101682.53;5180716;28;20030;-93
2023/06/23 08:37:21;;;;;;;1.73;1.63;;;;;;;19.65;75.81;101685.50;5188635;28;20666;-93
2023/06/23 08:40:12;;;;;;;2.30;2.10;;;;;;;19.75;75.96;101684.09;5174892;28;20383;-93
2023/06/23 08:43:03;;;;;;;4.57;2.05;;;;;;;19.65;74.39;101689.03;5175245;28;20037;-92
2023/06/23 08:45:58;;;;;;;1.42;1.33;;;;;;;19.76;75.93;101692.94;5170214;28;20133;-91
2023/06/23 08:48:51;;;;;;;1.05;0.95;;;;;;;19.87;76.76;101698.63;5174057;28;20037;-93
2023/06/23 08:51:42;;;;;;;1.45;1.35;;;;;;;19.87;75.94;101700.44;5171575;28;20061;-93
2023/06/23 08:54:33;;;;;;;1.20;1.10;;;;;;;20.02;75.34;101701.44;5185710;28;20322;-93
2023/06/23 08:57:24;;;;;;;1.30;1.25;;;;;;;20.02;75.23;101707.66;5181153;28;20518;-93
2023/06/23 09:00:15;;;;;;;1.20;1.15;;;;;;;20.11;75.56;101707.19;5171051;28;20033;-93
2023/06/23 09:03:06;;;;;;;0.90;0.90;;;;;;;20.22;74.65;101708.41;5164245;28;20042;-92
2023/06/23 09:06:00;;;;;;;1.55;1.45;;;;;;;20.18;74.00;101713.03;5182587;28;20097;-90
2023/06/23 09:08:51;;;;;;;4.15;2.40;;;;;;;20.29;74.19;101720.44;5193930;28;20049;-92
2023/06/23 09:11:42;;;;;;;0.70;0.65;;;;;;;20.36;74.59;101715.69;5187244;28;20037;-93
2023/06/23 09:14:35;;;;;;;4.15;1.30;;;;;;;20.38;72.76;101721.78;5189789;28;20323;-92
2023/06/23 09:17:27;;;;;;;2.08;1.50;;;;;;;20.37;72.40;101720.91;5191973;28;20055;-91
2023/06/23 09:20:18;;;;;;;1.73;1.38;;;;;;;20.45;73.25;101716.03;5187228;28;20087;-92
2023/06/23 09:23:12;;;;;;;3.00;2.05;;;;;;;20.48;71.95;101722.16;5197114;28;20120;-91
2023/06/23 09:26:50;;;;;;;3.93;3.53;;;;;;;20.57;72.42;101719.00;5200990;28;20108;-93
2023/06/23 09:29:41;;;;;;;1.10;1.02;;;;;;;20.62;72.27;101726.75;5201748;28;20284;-92
2023/06/23 09:32:33;;;;;;;1.52;1.40;;;;;;;20.73;71.79;101722.59;5199913;28;20116;-93
2023/06/23 09:35:23;;;;;;;2.35;2.15;;;;;;;20.72;71.68;101731.50;5183228;28;20044;-91
2023/06/23 09:38:17;;;;;;;1.60;1.02;;;;;;;20.86;71.73;101730.78;5191179;28;20167;-93
2023/06/23 09:41:13;;;;;;;1.40;1.25;;;;;;;20.84;70.10;101731.81;5198945;28;20042;-92
2023/06/23 09:44:10;;;;;;;0.82;0.82;;;;;;;20.87;69.42;101736.97;5176113;28;20025;-93
2023/06/23 09:47:05;;;;;;;3.00;1.33;;;;;;;20.81;68.17;101739.97;5179797;28;20037;-93
2023/06/23 09:49:57;;;;;;;1.15;1.15;;;;;;;20.83;68.87;101746.97;5162704;28;20410;-92
2023/06/23 09:52:59;;;;;;;1.33;1.15;;;;;;;20.87;68.01;101742.31;5181599;28;20034;-93
2023/06/23 09:55:50;;;;;;;0.68;0.68;;;;;;;21.00;68.04;101742.50;5176175;28;20262;-93
2023/06/23 09:58:42;;;;;;;0.90;0.90;;;;;;;21.01;65.99;101753.13;5184563;28;20025;-92
2023/06/23 10:01:36;;;;;;;0.50;0.45;;;;;;;21.14;66.21;101758.63;5171739;28;20041;-93
2023/06/23 10:04:30;;;;;;;0.68;0.68;;;;;;;21.12;65.59;101751.63;5166694;28;20045;-93
2023/06/23 10:07:25;;;;;;;0.50;0.50;;;;;;;21.16;65.86;101755.88;5174833;28;20068;-93
2023/06/23 10:10:16;;;;;;;1.38;1.23;;;;;;;21.18;63.58;101759.31;5175430;28;20026;-93
2023/06/23 10:13:08;;;;;;;10.07;1.17;;;;;;;21.24;63.98;101756.31;5167814;28;20026;-93
2023/06/23 10:16:00;;;;;;;2.15;1.50;;;;;;;21.20;62.21;101760.06;5174865;28;20041;-93
2023/06/23 10:18:52;;;;;;;1.25;1.15;;;;;;;21.28;61.22;101752.50;5178461;28;20597;-94
2023/06/23 10:21:44;;;;;;;0.73;0.73;;;;;;;21.21;61.45;101756.47;5190004;28;20217;-93
2023/06/23 10:24:36;;;;;;;1.85;1.05;;;;;;;21.29;61.42;101764.91;5171198;28;20022;-93
2023/06/23 10:27:29;;;;;;;1.35;1.17;;;;;;;21.27;60.16;101756.16;5177111;28;20033;-94
2023/06/23 10:30:21;;;;;;;0.57;0.57;;;;;;;21.31;60.38;101752.34;5176921;28;20033;-92
2023/06/23 10:33:18;;;;;;;1.10;0.55;;;;;;;21.39;60.26;101754.59;5170857;28;20060;-89
2023/06/23 10:36:18;;;;;;;0.77;0.77;;;;;;;21.41;60.23;101751.81;5166306;28;20034;-90
2023/06/23 10:39:10;;;;;;;0.50;0.50;;;;;;;21.50;60.39;101751.31;5182019;28;20065;-90
2023/06/23 10:42:02;;;;;;;0.90;0.90;;;;;;;21.46;56.63;101760.44;5181955;28;20064;-89
2023/06/23 10:44:54;;;;;;;0.70;0.70;;;;;;;21.49;50.93;101757.59;5173508;28;20088;-90
2023/06/23 10:47:45;;;;;;;1.17;0.77;;;;;;;21.53;52.27;101761.78;5183573;28;20045;-91
2023/06/23 10:50:38;;;;;;;4.35;0.88;;;;;;;21.47;55.26;101748.81;5172255;28;20029;-91
2023/06/23 10:53:32;;;;;;;0.28;0.28;;;;;;;21.60;54.94;101754.34;5175125;28;20125;-91
2023/06/23 10:56:43;;;;;;;0.65;0.65;;;;;;;21.68;57.31;101750.28;5169611;28;20069;-91
2023/06/23 10:59:34;;;;;;;1.08;1.08;;;;;;;21.90;56.17;101753.53;5196699;28;20021;-92
2023/06/23 11:02:25;;;;;;;0.75;0.75;;;;;;;21.91;53.88;101745.41;5185723;28;20041;-91
2023/06/23 11:05:19;;;;;;;0.20;0.20;;;;;;;21.90;49.65;101753.53;5166179;28;20045;-93
2023/06/23 11:08:12;;;;;;;0.43;0.43;;;;;;;21.93;52.14;101754.19;5182323;28;20026;-92
2023/06/23 11:11:07;;;;;;;0.77;0.77;;;;;;;21.97;51.05;101745.03;5184024;28;20159;-93
2023/06/23 11:13:58;;;;;;;0.30;0.30;;;;;;;22.01;50.07;101745.72;5177052;28;20118;-93
2023/06/23 11:16:49;;;;;;;0.60;0.60;;;;;;;22.01;51.90;101743.91;5174329;28;20038;-92
2023/06/23 11:19:43;;;;;;;0.60;0.60;;;;;;;22.07;50.64;101740.00;5180221;28;20030;-92
2023/06/23 11:22:38;;;;;;;0.63;0.63;;;;;;;22.11;49.79;101746.00;5181210;28;20064;-93
2023/06/23 11:25:35;;;;;;;0.38;0.38;;;;;;;22.22;51.04;101754.25;5189709;28;20037;-93
2023/06/23 11:28:37;;;;;;;0.80;0.80;;;;;;;22.33;50.86;101750.94;5180747;28;20088;-91
2023/06/23 11:31:28;;;;;;;0.45;0.45;;;;;;;22.44;49.95;101752.97;5177681;28;20586;-92
2023/06/23 11:34:20;;;;;;;1.15;1.05;;;;;;;22.52;52.33;101749.84;5184733;28;20085;-93
2023/06/23 11:37:12;;;;;;;0.82;0.82;;;;;;;22.70;50.66;101753.19;5193517;28;20430;-93
2023/06/23 11:40:05;;;;;;;0.30;0.30;;;;;;;22.82;48.45;101739.06;5178627;28;20026;-91
2023/06/23 11:42:56;;;;;;;0.30;0.30;;;;;;;22.92;47.33;101742.00;5182573;28;20265;-92
2023/06/23 11:45:53;;;;;;;0.93;0.85;;;;;;;23.10;47.40;101745.31;5186085;28;20044;-91
2023/06/23 11:48:45;;;;;;;2.17;0.73;;;;;;;23.06;48.75;101749.16;5192310;28;20302;-91
2023/06/23 11:51:36;;;;;;;0.30;0.30;;;;;;;23.06;47.62;101751.84;5189015;28;20089;-91
2023/06/23 11:54:32;;;;;;;0.63;0.63;;;;;;;23.34;48.46;101752.78;5198116;28;20040;-91
2023/06/23 11:57:24;;;;;;;0.50;0.50;;;;;;;23.53;48.35;101761.31;5191734;28;20053;-91
2023/06/23 12:00:16;;;;;;;0.90;0.90;;;;;;;23.45;45.71;101762.78;5208873;28;20268;-92
2023/06/23 12:03:14;;;;;;;0.73;0.30;;;;;;;23.56;45.05;101758.44;5174152;28;20034;-90
2023/06/23 12:06:05;;;;;;;0.30;0.30;;;;;;;23.49;45.99;101762.50;5194789;28;20034;-91
2023/06/23 12:08:57;;;;;;;0.20;0.20;;;;;;;23.93;45.69;101764.97;5174983;28;20021;-92
2023/06/23 12:12:23;;;;;;;0.55;0.55;;;;;;;23.98;45.98;101761.06;5198800;28;20033;-93
2023/06/23 12:19:32;;;;;;;0.30;0.30;;;;;;;24.27;42.15;101768.06;5132963;28;20121;-92
2023/06/23 12:22:23;;;;;;;0.37;0.37;;;;;;;24.58;43.60;101766.81;5162590;28;20026;-93
2023/06/23 12:25:14;;;;;;;0.43;0.43;;;;;;;24.69;44.05;101759.88;5141402;28;20969;-91
2023/06/23 12:28:10;;;;;;;0.65;0.65;;;;;;;24.61;47.08;101758.56;5139794;28;20149;-90
2023/06/23 12:31:04;;;;;;;2.75;0.90;;;;;;;24.97;45.35;101756.06;5131098;28;20050;-93
2023/06/23 12:33:56;;;;;;;0.22;0.22;;;;;;;24.95;45.36;101758.88;5143800;28;21021;-91
2023/06/23 12:36:48;;;;;;;0.20;0.20;;;;;;;24.79;43.46;101759.09;5130806;28;20430;-92
2023/06/23 12:39:38;;;;;;;0.40;0.40;;;;;;;24.88;44.88;101762.09;5143641;28;20031;-89
2023/06/23 12:42:29;;;;;;;0.28;0.28;;;;;;;24.85;43.25;101765.84;5136438;28;20046;-90
2023/06/23 12:45:24;;;;;;;0.70;0.70;;;;;;;24.74;45.01;101763.06;5140366;28;20035;-93
2023/06/23 12:48:15;;;;;;;0.30;0.30;;;;;;;25.06;43.46;101758.09;5178362;28;20029;-93
2023/06/23 12:51:07;;;;;;;0.95;0.95;;;;;;;25.06;45.52;101752.72;5182947;28;20097;-94
2023/06/23 12:54:00;;;;;;;0.60;0.60;;;;;;;25.25;44.75;101749.53;5186700;28;20063;-90
2023/06/23 12:56:50;;;;;;;0.32;0.32;;;;;;;25.33;44.09;101751.66;5178453;28;20209;-93
2023/06/23 12:59:42;;;;;;;0.55;0.55;;;;;;;25.41;44.11;101741.22;5179573;28;20037;-93
2023/06/23 13:02:33;;;;;;;1.85;0.40;;;;;;;25.36;42.23;101740.69;5183654;28;20121;-92
2023/06/23 13:05:26;;;;;;;0.38;0.38;;;;;;;25.54;42.06;101749.22;5179904;28;20038;-92
2023/06/23 13:08:17;;;;;;;0.53;0.53;;;;;;;25.84;44.32;101752.41;5179799;28;20026;-90
2023/06/23 13:11:08;;;;;;;0.70;0.57;;;;;;;25.58;41.56;101745.34;5195169;28;20096;-92
2023/06/23 13:13:58;;;;;;;1.20;0.77;;;;;;;25.52;41.02;101751.19;5173099;28;20045;-86
2023/06/23 13:16:49;;;;;;;0.20;0.20;;;;;;;25.55;41.08;101750.94;5188859;28;20649;-84
2023/06/23 13:19:40;;;;;;;0.20;0.20;;;;;;;25.45;40.23;101748.09;5182154;28;20044;-85
2023/06/23 13:22:31;;;;;;;0.32;0.32;;;;;;;25.69;43.11;101746.38;5180144;28;20037;-84
2023/06/23 13:25:23;;;;;;;0.30;0.30;;;;;;;25.80;43.17;101748.25;5174757;28;20045;-84
2023/06/23 13:28:14;;;;;;;0.40;0.40;;;;;;;25.79;40.76;101741.16;5165184;28;20190;-85
2023/06/23 13:31:05;;;;;;;0.63;0.55;;;;;;;25.92;42.12;101741.94;5173404;28;20134;-86
2023/06/23 13:33:56;;;;;;;0.50;0.50;;;;;;;26.01;41.80;101745.75;5164343;28;20037;-85
2023/06/23 13:36:47;;;;;;;0.43;0.43;;;;;;;25.97;40.64;101744.25;5164653;28;20033;-85
2023/06/23 13:39:38;;;;;;;0.40;0.40;;;;;;;26.19;41.90;101735.44;5191860;28;20080;-86
2023/06/23 13:42:29;;;;;;;0.77;0.77;;;;;;;26.12;41.28;101737.72;5207592;28;20041;-85